Gentil, Brazil
Current Conditions -  °F | °C
As of 11:00 PM on Monday 24 Nov 2014 (Local Time) from SBCH Reporting Station
Few Clouds Few Clouds  
Wind Chill: 81°   Ceiling: Unl
Heat Index: 83°   Visibility: 6mi
Dew Point: 68°   Wind: 6mph
Humidity: 65%   Direction: 60°ENE
Pressure: 29.88"   Gusts: NA
Location:  28.43°S, 52.04°W
Report Text: SBCH 250100Z 06005KT 9999 FEW045 FEW060TCU 27/20 Q1012
Loading
Personal Weather Stations






























Interactive Weather Map New forecast layout! Learn more

10-Day Weather Forecast

Advertisements
Track Severe Weather on mobile